»·PEaware :: N5MW KGJT-KABQ

N5MW :: KGJT-KABQ

FLIGHT INFORMATION

Flight Status: Arrived
Operator: Privately registered:
United States
More flights under this callsign
Pilot: Max W. (2591)
Aircraft: Unknown
(SF50)
More flights by this aircraft type
Origin: KGJT Walker
United States
Destination: KABQ Albuquerque Intl Sunport
United States
More flights between these airports :: More routes between these airports
Route: DRO ABQ
File this flight plan on PilotEdge
Remarks:
Altitude:
(Current/Filed)
27,000ft
Speed:
(Current/Filed)
400kts
Departed: 19-Oct-17 07:40 PM
Arrived: 19-Oct-17 08:49 PM
Distance/Time
Traveled:
261nm/1:09
Distance/Time
To Go:
Arrived

Flight Plot

Page will automatically refresh every two minutes.

Flight plan parsing failed; only flown route is shown


Map Options




Map Legend


Flown Route
Filed Route
Departure Airport
Arrival Airport
Navaid (VOR, NDB)
Fix

Horizontal Profiles

Position Reports

Time Latitude Longitude Heading Altitude Ground
Speed
19-Oct-17 19:28 39.119093 -108.521317 127 4861ft 0kts
19-Oct-17 19:29 39.119093 -108.521317 127 4861ft 0kts
19-Oct-17 19:30 39.119093 -108.521317 127 4861ft 0kts
19-Oct-17 19:31 39.119093 -108.521317 127 4861ft 0kts
19-Oct-17 19:32 39.119093 -108.521317 127 4861ft 0kts
19-Oct-17 19:33 39.119093 -108.521317 127 4861ft 0kts
19-Oct-17 19:34 39.119093 -108.521317 127 4861ft 0kts
19-Oct-17 19:35 39.119093 -108.521317 127 4861ft 0kts
19-Oct-17 19:36 39.119093 -108.521317 127 4861ft 0kts
19-Oct-17 19:37 39.119084 -108.521301 126 4861ft 0kts
19-Oct-17 19:38 39.119183 -108.521209 9 4861ft 0kts
19-Oct-17 19:39 39.119183 -108.521209 9 4861ft 0kts
19-Oct-17 19:40 39.119542 -108.519740 52 4861ft 8kts
19-Oct-17 19:41 39.118530 -108.516877 124 4861ft 0kts
19-Oct-17 19:42 39.118271 -108.516422 120 4861ft 0kts
19-Oct-17 19:43 39.118768 -108.514833 307 4861ft 0kts
19-Oct-17 19:44 39.118768 -108.514833 307 4861ft 0kts
19-Oct-17 19:45 39.120537 -108.518055 305 4861ft 74kts
19-Oct-17 19:46 39.134358 -108.556575 279 6114ft 142kts
19-Oct-17 19:47 39.142303 -108.617880 279 8082ft 187kts
19-Oct-17 19:48 39.150231 -108.684157 267 10305ft 193kts
19-Oct-17 19:49 39.118880 -108.710731 157 12049ft 195kts
19-Oct-17 19:50 39.062665 -108.682014 162 14535ft 195kts
19-Oct-17 19:51 39.020280 -108.660650 162 16120ft 199kts
19-Oct-17 19:52 38.967969 -108.634382 162 17854ft 204kts
19-Oct-17 19:53 38.906684 -108.603641 163 19798ft 206kts
19-Oct-17 19:54 38.863107 -108.581845 163 21028ft 209kts
19-Oct-17 19:55 38.808600 -108.554627 163 22436ft 213kts
19-Oct-17 19:56 38.753656 -108.527240 163 23727ft 217kts
19-Oct-17 19:57 38.697256 -108.499163 163 24927ft 220kts
19-Oct-17 19:58 38.639702 -108.470557 163 26040ft 224kts
19-Oct-17 19:59 38.581182 -108.441533 164 27001ft 230kts
19-Oct-17 20:00 38.516603 -108.409725 163 27030ft 266kts
19-Oct-17 20:01 38.444464 -108.374175 163 27026ft 287kts
19-Oct-17 20:02 38.371118 -108.338017 163 27063ft 284kts
19-Oct-17 20:03 38.297260 -108.301706 163 27073ft 288kts
19-Oct-17 20:04 38.223276 -108.265415 163 27073ft 293kts
19-Oct-17 20:05 38.147566 -108.228356 163 27099ft 296kts
19-Oct-17 20:06 38.070658 -108.190805 163 27143ft 296kts
19-Oct-17 20:07 37.994391 -108.153655 163 27234ft 295kts
19-Oct-17 20:08 37.917536 -108.116326 163 27233ft 296kts
19-Oct-17 20:09 37.842384 -108.079743 164 27240ft 296kts
19-Oct-17 20:10 37.765581 -108.042612 164 27239ft 295kts
19-Oct-17 20:11 37.689096 -108.005720 164 27239ft 295kts
19-Oct-17 20:12 37.612647 -107.968924 164 27238ft 295kts
19-Oct-17 20:13 37.536147 -107.932194 164 27238ft 295kts
19-Oct-17 20:14 37.459734 -107.895588 164 27237ft 294kts
19-Oct-17 20:15 37.383282 -107.859049 164 27204ft 295kts
19-Oct-17 20:16 37.306094 -107.822247 164 27128ft 296kts
19-Oct-17 20:17 37.229546 -107.785821 164 27128ft 295kts
19-Oct-17 20:18 37.152819 -107.749477 165 27127ft 294kts
19-Oct-17 20:19 37.076277 -107.714592 165 27127ft 294kts
19-Oct-17 20:20 36.999703 -107.679836 165 27126ft 293kts
19-Oct-17 20:21 36.922965 -107.645074 165 27126ft 293kts
19-Oct-17 20:22 36.848246 -107.611271 165 27134ft 294kts
19-Oct-17 20:23 36.771356 -107.576636 165 27133ft 295kts
19-Oct-17 20:24 36.693568 -107.541647 163 27132ft 300kts
19-Oct-17 20:25 36.614775 -107.506244 163 27132ft 303kts
19-Oct-17 20:26 36.535266 -107.470614 163 27131ft 305kts
19-Oct-17 20:27 36.455459 -107.434932 163 27131ft 306kts
19-Oct-17 20:28 36.375529 -107.399271 163 27089ft 307kts
19-Oct-17 20:29 36.295531 -107.363452 163 27129ft 305kts
19-Oct-17 20:30 36.216317 -107.328467 164 27127ft 306kts
19-Oct-17 20:31 36.136312 -107.293009 164 27181ft 305kts
19-Oct-17 20:32 36.056449 -107.257708 164 26957ft 313kts
19-Oct-17 20:33 35.970409 -107.219753 163 25445ft 345kts
19-Oct-17 20:34 35.884648 -107.181950 164 23968ft 332kts
19-Oct-17 20:35 35.798712 -107.144217 163 21217ft 324kts
19-Oct-17 20:36 35.715683 -107.107837 163 18865ft 313kts
19-Oct-17 20:37 35.635089 -107.072596 163 16708ft 304kts
19-Oct-17 20:38 35.556779 -107.038372 162 14764ft 295kts
19-Oct-17 20:39 35.481255 -107.005664 159 13103ft 282kts
19-Oct-17 20:40 35.405464 -106.970659 144 13006ft 282kts
19-Oct-17 20:41 35.356092 -106.911123 135 13054ft 249kts
19-Oct-17 20:42 35.306812 -106.851382 135 12383ft 241kts
19-Oct-17 20:43 35.259623 -106.794296 135 10077ft 237kts
19-Oct-17 20:44 35.213338 -106.738343 135 9057ft 239kts
19-Oct-17 20:45 35.170984 -106.680349 124 8904ft 231kts
19-Oct-17 20:46 35.140145 -106.617035 121 7985ft 203kts
19-Oct-17 20:47 35.115826 -106.565149 118 7675ft 124kts
19-Oct-17 20:48 35.100240 -106.533580 121 7206ft 98kts
19-Oct-17 20:49 35.076639 -106.514740 180 7007ft 113kts
19-Oct-17 20:50 35.048607 -106.522937 236 6596ft 123kts
19-Oct-17 20:51 35.044008 -106.560447 267 5695ft 111kts
19-Oct-17 20:52 35.044161 -106.589825 268 5358ft 59kts
19-Oct-17 20:53 35.044383 -106.609863 279 5358ft 44kts
19-Oct-17 20:54 35.045731 -106.613602 49 5358ft 12kts
19-Oct-17 20:55 35.047910 -106.609074 35 5358ft 0kts

Navigation Log

Ident Type
Flight plan parsing failed, navigation log unavailable